createdAt,value
2022-11-09T00:00:39.518Z,1002.08
2022-11-09T00:01:39.507Z,1002.09
2022-11-09T00:02:43.802Z,1002.06
2022-11-09T00:03:39.475Z,1002.09
2022-11-09T00:04:39.474Z,1002.08
2022-11-09T00:05:39.457Z,1002.10
2022-11-09T00:06:39.514Z,1002.10
2022-11-09T00:07:39.433Z,1002.13
2022-11-09T00:08:39.434Z,1002.09
2022-11-09T00:09:39.514Z,1002.07
2022-11-09T00:10:39.402Z,1002.06
2022-11-09T00:11:39.411Z,1002.07
2022-11-09T00:12:39.395Z,1002.06
2022-11-09T00:13:39.360Z,1002.07
2022-11-09T00:14:39.366Z,1002.01
2022-11-09T00:15:39.337Z,1001.97
2022-11-09T00:16:39.334Z,1002.00
2022-11-09T00:17:39.334Z,1001.98
2022-11-09T00:18:39.324Z,1002.01
2022-11-09T00:19:39.299Z,1002.01
2022-11-09T00:20:42.105Z,1002.02
2022-11-09T00:21:40.269Z,1001.97
2022-11-09T00:22:39.287Z,1002.00
2022-11-09T00:23:39.255Z,1002.00
2022-11-09T00:24:39.238Z,1001.99
2022-11-09T00:25:39.235Z,1002.00
2022-11-09T00:26:39.225Z,1002.03
2022-11-09T00:27:39.265Z,1002.00
2022-11-09T00:28:39.195Z,1002.01
2022-11-09T00:29:39.193Z,1001.97
2022-11-09T00:30:39.176Z,1001.97
2022-11-09T00:31:39.170Z,1002.00
2022-11-09T00:32:39.165Z,1001.96
2022-11-09T00:33:39.142Z,1001.98
2022-11-09T00:34:39.138Z,1002.02
2022-11-09T00:35:39.117Z,1002.06
2022-11-09T00:36:39.110Z,1002.08
2022-11-09T00:37:39.158Z,1002.02
2022-11-09T00:38:39.088Z,1002.06
2022-11-09T00:39:39.081Z,1002.05
2022-11-09T00:40:39.081Z,1002.09
2022-11-09T00:41:39.057Z,1002.08
2022-11-09T00:42:39.055Z,1002.02
2022-11-09T00:43:39.044Z,1002.08
2022-11-09T00:44:39.017Z,1002.03
2022-11-09T00:45:39.002Z,1002.04
2022-11-09T00:46:38.988Z,1002.02
2022-11-09T00:47:39.004Z,1002.03
2022-11-09T00:48:38.979Z,1001.98
2022-11-09T00:49:38.968Z,1001.99
2022-11-09T00:50:38.940Z,1001.99
2022-11-09T00:51:38.943Z,1002.01
2022-11-09T00:52:38.929Z,1001.95
2022-11-09T00:53:38.983Z,1001.99
2022-11-09T00:54:38.905Z,1002.00
2022-11-09T00:55:38.909Z,1002.01
2022-11-09T00:56:38.881Z,1002.02
2022-11-09T00:57:38.883Z,1002.03
2022-11-09T00:58:38.862Z,1002.04
2022-11-09T00:59:38.872Z,1002.08
2022-11-09T01:00:38.928Z,1002.07
2022-11-09T01:01:38.905Z,1002.13
2022-11-09T01:02:38.848Z,1002.11
2022-11-09T01:03:38.818Z,1002.17
2022-11-09T01:04:38.795Z,1002.15
2022-11-09T01:05:38.783Z,1002.17
2022-11-09T01:06:38.812Z,1002.14
2022-11-09T01:07:38.779Z,1002.10
2022-11-09T01:08:38.747Z,1002.14
2022-11-09T01:09:38.772Z,1002.11
2022-11-09T01:10:38.728Z,1002.13
2022-11-09T01:11:38.724Z,1002.13
2022-11-09T01:12:38.715Z,1002.10
2022-11-09T01:13:39.375Z,1002.18
2022-11-09T01:14:38.680Z,1002.18
2022-11-09T01:15:38.700Z,1002.18
2022-11-09T01:16:38.660Z,1002.16
2022-11-09T01:17:38.684Z,1002.16
2022-11-09T01:18:38.669Z,1002.19
2022-11-09T01:19:38.659Z,1002.21
2022-11-09T01:20:38.611Z,1002.19
2022-11-09T01:21:38.612Z,1002.23
2022-11-09T01:22:38.604Z,1002.24
2022-11-09T01:23:38.583Z,1002.23
2022-11-09T01:24:38.577Z,1002.19
2022-11-09T01:25:38.559Z,1002.23
2022-11-09T01:26:38.552Z,1002.20
2022-11-09T01:27:38.563Z,1002.11
2022-11-09T01:28:38.541Z,1002.16
2022-11-09T01:29:38.527Z,1002.13
2022-11-09T01:30:38.511Z,1002.11
2022-11-09T01:31:38.510Z,1002.14
2022-11-09T01:32:38.505Z,1002.15
2022-11-09T01:33:38.474Z,1002.16
2022-11-09T01:34:38.458Z,1002.19
2022-11-09T01:35:38.459Z,1002.22
2022-11-09T01:36:38.442Z,1002.19
2022-11-09T01:37:38.447Z,1002.17
2022-11-09T01:38:38.423Z,1002.18
2022-11-09T01:39:38.409Z,1002.15
2022-11-09T01:40:38.399Z,1002.16
2022-11-09T01:41:38.388Z,1002.14
2022-11-09T01:42:38.392Z,1002.16
2022-11-09T01:43:38.360Z,1002.10
2022-11-09T01:44:38.376Z,1002.09
2022-11-09T01:45:38.339Z,1002.09
2022-11-09T01:46:38.340Z,1002.07
2022-11-09T01:47:38.347Z,1002.06
2022-11-09T01:48:38.310Z,1002.04
2022-11-09T01:49:38.295Z,1002.02
2022-11-09T01:50:38.282Z,1002.01
2022-11-09T01:51:38.278Z,1002.01
2022-11-09T01:52:38.289Z,1001.99
2022-11-09T01:53:38.304Z,1002.01
2022-11-09T01:54:38.241Z,1002.01
2022-11-09T01:55:38.225Z,1002.06
2022-11-09T01:56:38.216Z,1002.03
2022-11-09T01:57:38.224Z,1002.00
2022-11-09T01:58:38.195Z,1002.05
2022-11-09T01:59:38.180Z,1002.04
2022-11-09T02:00:38.171Z,1002.04
2022-11-09T02:01:38.262Z,1002.05
2022-11-09T02:02:38.168Z,1002.11
2022-11-09T02:03:38.168Z,1002.09
2022-11-09T02:04:38.133Z,1002.04
2022-11-09T02:05:38.122Z,1002.06
2022-11-09T02:06:38.144Z,1002.09
2022-11-09T02:07:38.110Z,1002.06
2022-11-09T02:08:38.092Z,1002.06
2022-11-09T02:09:38.081Z,1002.09
2022-11-09T02:10:38.075Z,1002.07
2022-11-09T02:11:38.057Z,1002.09
2022-11-09T02:12:38.058Z,1002.12
2022-11-09T02:13:38.030Z,1002.11
2022-11-09T02:14:38.032Z,1002.08
2022-11-09T02:15:42.772Z,1002.00
2022-11-09T02:16:38.998Z,1001.98
2022-11-09T02:17:38.009Z,1001.94
2022-11-09T02:18:37.971Z,1002.06
2022-11-09T02:19:37.992Z,1001.99
2022-11-09T02:20:37.958Z,1002.04
2022-11-09T02:21:37.939Z,1002.02
2022-11-09T02:22:37.981Z,1002.00
2022-11-09T02:23:37.920Z,1002.03
2022-11-09T02:24:37.915Z,1001.99
2022-11-09T02:25:37.911Z,1001.97
2022-11-09T02:26:37.892Z,1001.94
2022-11-09T02:27:37.894Z,1001.96
2022-11-09T02:28:37.867Z,1001.97
2022-11-09T02:29:37.857Z,1001.96
2022-11-09T02:30:37.845Z,1001.99
2022-11-09T02:31:37.832Z,1001.98
2022-11-09T02:32:37.848Z,1001.98
2022-11-09T02:33:37.807Z,1001.99
2022-11-09T02:34:37.796Z,1001.93
2022-11-09T02:35:37.875Z,1001.96
2022-11-09T02:36:37.777Z,1001.97
2022-11-09T02:37:37.824Z,1001.91
2022-11-09T02:38:37.758Z,1001.93
2022-11-09T02:39:37.746Z,1001.93
2022-11-09T02:40:37.735Z,1001.94
2022-11-09T02:41:37.717Z,1001.92
2022-11-09T02:42:37.712Z,1001.93
2022-11-09T02:43:37.721Z,1001.93
2022-11-09T02:44:37.683Z,1001.95
2022-11-09T02:45:37.677Z,1001.95
2022-11-09T02:46:37.661Z,1002.00
2022-11-09T02:47:37.672Z,1002.06
2022-11-09T02:48:37.647Z,1002.01
2022-11-09T02:49:37.629Z,1002.05
2022-11-09T02:50:37.623Z,1001.98
2022-11-09T02:51:37.636Z,1001.98
2022-11-09T02:52:37.617Z,1001.94
2022-11-09T02:53:37.584Z,1001.93
2022-11-09T02:54:37.587Z,1001.93
2022-11-09T02:55:37.567Z,1001.91
2022-11-09T02:56:37.558Z,1001.92
2022-11-09T02:57:37.573Z,1001.97
2022-11-09T02:58:37.536Z,1002.03
2022-11-09T02:59:37.518Z,1002.03
2022-11-09T03:00:37.516Z,1002.02
2022-11-09T03:01:37.553Z,1002.00
2022-11-09T03:02:37.509Z,1002.02
2022-11-09T03:03:37.478Z,1002.05
2022-11-09T03:04:37.461Z,1002.03
2022-11-09T03:05:37.470Z,1002.02
2022-11-09T03:06:37.519Z,1002.02
2022-11-09T03:07:37.466Z,1001.96
2022-11-09T03:08:37.424Z,1002.00
2022-11-09T03:09:37.405Z,1002.01
2022-11-09T03:10:37.408Z,1002.01
2022-11-09T03:11:37.425Z,1002.01
2022-11-09T03:12:37.396Z,1002.02
2022-11-09T03:13:37.364Z,1002.01
2022-11-09T03:14:37.354Z,1002.04
2022-11-09T03:15:37.354Z,1002.00
2022-11-09T03:16:37.335Z,1001.98
2022-11-09T03:17:37.339Z,1001.99
2022-11-09T03:18:37.318Z,1001.98
2022-11-09T03:19:37.319Z,1002.03
2022-11-09T03:20:37.305Z,1002.03
2022-11-09T03:21:37.290Z,1002.04
2022-11-09T03:22:37.286Z,1002.07
2022-11-09T03:23:37.280Z,1002.06
2022-11-09T03:24:37.253Z,1002.02
2022-11-09T03:25:37.248Z,1002.02
2022-11-09T03:26:37.236Z,1002.01
2022-11-09T03:27:37.238Z,1002.06
2022-11-09T03:28:37.203Z,1002.09
2022-11-09T03:29:37.190Z,1002.07
2022-11-09T03:30:37.184Z,1002.08
2022-11-09T03:31:37.164Z,1002.07
2022-11-09T03:32:37.163Z,1002.13
2022-11-09T03:33:37.152Z,1002.07
2022-11-09T03:34:37.133Z,1002.07
2022-11-09T03:35:37.122Z,1002.11
2022-11-09T03:36:37.117Z,1002.14
2022-11-09T03:37:37.208Z,1002.17
2022-11-09T03:38:37.095Z,1002.20
2022-11-09T03:39:37.103Z,1002.19
2022-11-09T03:40:37.078Z,1002.20
2022-11-09T03:41:37.084Z,1002.19
2022-11-09T03:42:37.070Z,1002.21
2022-11-09T03:43:37.033Z,1002.22
2022-11-09T03:44:37.023Z,1002.24
2022-11-09T03:45:37.017Z,1002.27
2022-11-09T03:46:36.998Z,1002.28
2022-11-09T03:47:37.004Z,1002.24
2022-11-09T03:48:36.988Z,1002.27
2022-11-09T03:49:36.978Z,1002.23
2022-11-09T03:50:36.973Z,1002.22
2022-11-09T03:51:36.958Z,1002.26
2022-11-09T03:52:36.959Z,1002.28
2022-11-09T03:53:36.928Z,1002.29
2022-11-09T03:54:36.944Z,1002.24
2022-11-09T03:55:36.928Z,1002.30
2022-11-09T03:56:36.897Z,1002.29
2022-11-09T03:57:36.897Z,1002.31
2022-11-09T03:58:36.874Z,1002.34
2022-11-09T03:59:36.868Z,1002.28
2022-11-09T04:00:36.855Z,1002.27
2022-11-09T04:01:36.908Z,1002.29
2022-11-09T04:02:36.843Z,1002.34
2022-11-09T04:03:36.839Z,1002.37
2022-11-09T04:04:36.807Z,1002.36
2022-11-09T04:05:36.795Z,1002.37
2022-11-09T04:06:36.856Z,1002.39
2022-11-09T04:07:36.791Z,1002.37
2022-11-09T04:08:36.764Z,1002.39
2022-11-09T04:09:36.750Z,1002.35
2022-11-09T04:10:36.735Z,1002.35
2022-11-09T04:11:36.758Z,1002.35
2022-11-09T04:12:36.746Z,1002.30
2022-11-09T04:13:36.712Z,1002.25
2022-11-09T04:14:36.704Z,1002.31
2022-11-09T04:15:36.689Z,1002.34
2022-11-09T04:16:36.670Z,1002.41
2022-11-09T04:17:36.706Z,1002.41
2022-11-09T04:18:36.646Z,1002.38
2022-11-09T04:19:36.642Z,1002.44
2022-11-09T04:20:36.635Z,1002.39
2022-11-09T04:21:36.626Z,1002.42
2022-11-09T04:22:36.619Z,1002.36
2022-11-09T04:23:36.594Z,1002.36
2022-11-09T04:24:36.606Z,1002.38
2022-11-09T04:25:36.590Z,1002.38
2022-11-09T04:26:36.595Z,1002.38
2022-11-09T04:27:36.600Z,1002.43
2022-11-09T04:28:36.541Z,1002.36
2022-11-09T04:29:36.545Z,1002.33
2022-11-09T04:30:36.521Z,1002.33
2022-11-09T04:31:36.514Z,1002.30
2022-11-09T04:32:36.503Z,1002.30
2022-11-09T04:33:36.505Z,1002.31
2022-11-09T04:34:36.474Z,1002.30
2022-11-09T04:35:36.484Z,1002.30
2022-11-09T04:36:36.451Z,1002.29
2022-11-09T04:37:36.472Z,1002.31
2022-11-09T04:38:36.431Z,1002.27
2022-11-09T04:39:36.421Z,1002.30
2022-11-09T04:40:36.415Z,1002.31
2022-11-09T04:41:36.402Z,1002.28
2022-11-09T04:42:36.453Z,1002.28
2022-11-09T04:43:36.475Z,1002.30
2022-11-09T04:44:36.365Z,1002.32
2022-11-09T04:45:36.363Z,1002.33
2022-11-09T04:46:36.343Z,1002.28
2022-11-09T04:47:36.362Z,1002.33
2022-11-09T04:48:36.334Z,1002.33
2022-11-09T04:49:36.314Z,1002.34
2022-11-09T04:50:36.304Z,1002.37
2022-11-09T04:51:36.286Z,1002.38
2022-11-09T04:52:36.298Z,1002.38
2022-11-09T04:53:36.263Z,1002.40
2022-11-09T04:54:36.253Z,1002.39
2022-11-09T04:55:36.259Z,1002.42
2022-11-09T04:56:36.240Z,1002.42
2022-11-09T04:57:36.247Z,1002.42
2022-11-09T04:58:36.219Z,1002.38
2022-11-09T04:59:36.215Z,1002.42
2022-11-09T05:00:36.203Z,1002.49
2022-11-09T05:01:36.182Z,1002.51
2022-11-09T05:02:36.187Z,1002.52
2022-11-09T05:03:36.227Z,1002.54
2022-11-09T05:04:36.143Z,1002.57
2022-11-09T05:05:36.138Z,1002.52
2022-11-09T05:06:36.198Z,1002.57
2022-11-09T05:07:36.137Z,1002.55
2022-11-09T05:08:36.099Z,1002.59
2022-11-09T05:09:36.096Z,1002.55
2022-11-09T05:10:36.087Z,1002.54
2022-11-09T05:11:36.101Z,1002.56
2022-11-09T05:12:36.090Z,1002.57
2022-11-09T05:13:36.053Z,1002.61
2022-11-09T05:14:36.035Z,1002.61
2022-11-09T05:15:36.180Z,1002.61
2022-11-09T05:16:36.019Z,1002.61
2022-11-09T05:17:36.018Z,1002.59
2022-11-09T05:18:35.993Z,1002.56
2022-11-09T05:19:35.985Z,1002.50
2022-11-09T05:20:35.990Z,1002.45
2022-11-09T05:21:35.961Z,1002.47
2022-11-09T05:22:35.965Z,1002.50
2022-11-09T05:23:35.942Z,1002.53
2022-11-09T05:24:35.931Z,1002.53
2022-11-09T05:25:35.923Z,1002.49
2022-11-09T05:26:35.902Z,1002.48
2022-11-09T05:27:35.909Z,1002.44
2022-11-09T05:28:35.883Z,1002.46
2022-11-09T05:29:35.872Z,1002.50
2022-11-09T05:30:35.870Z,1002.57
2022-11-09T05:31:35.865Z,1002.60
2022-11-09T05:32:35.854Z,1002.63
2022-11-09T05:33:35.829Z,1002.56
2022-11-09T05:34:35.824Z,1002.51
2022-11-09T05:35:35.810Z,1002.57
2022-11-09T05:36:35.804Z,1002.55
2022-11-09T05:37:35.792Z,1002.56
2022-11-09T05:38:35.769Z,1002.58
2022-11-09T05:39:35.763Z,1002.64
2022-11-09T05:40:35.752Z,1002.61
2022-11-09T05:41:35.739Z,1002.58
2022-11-09T05:42:35.756Z,1002.56
2022-11-09T05:43:35.709Z,1002.52
2022-11-09T05:44:35.699Z,1002.58
2022-11-09T05:45:42.583Z,1002.58
2022-11-09T05:46:36.677Z,1002.59
2022-11-09T05:47:36.029Z,1002.50
2022-11-09T05:48:35.669Z,1002.49
2022-11-09T05:49:35.654Z,1002.49
2022-11-09T05:50:35.654Z,1002.52
2022-11-09T05:51:35.630Z,1002.49
2022-11-09T05:52:35.638Z,1002.49
2022-11-09T05:53:35.601Z,1002.48
2022-11-09T05:54:35.603Z,1002.50
2022-11-09T05:55:35.579Z,1002.52
2022-11-09T05:56:35.567Z,1002.55
2022-11-09T05:57:35.571Z,1002.56
2022-11-09T05:58:35.544Z,1002.51
2022-11-09T05:59:35.535Z,1002.51
2022-11-09T06:00:35.534Z,1002.50
2022-11-09T06:01:35.519Z,1002.42
2022-11-09T06:02:35.591Z,1002.45
2022-11-09T06:03:35.519Z,1002.49
2022-11-09T06:04:35.488Z,1002.45
2022-11-09T06:05:35.471Z,1002.40
2022-11-09T06:06:35.501Z,1002.44
2022-11-09T06:07:35.471Z,1002.45
2022-11-09T06:08:35.444Z,1002.45
2022-11-09T06:09:35.426Z,1002.46
2022-11-09T06:10:35.412Z,1002.41
2022-11-09T06:11:35.399Z,1002.49
2022-11-09T06:12:35.400Z,1002.50
2022-11-09T06:13:35.384Z,1002.49
2022-11-09T06:14:35.375Z,1002.50
2022-11-09T06:15:35.362Z,1002.43
2022-11-09T06:16:35.352Z,1002.41
2022-11-09T06:17:35.354Z,1002.41
2022-11-09T06:18:35.322Z,1002.40
2022-11-09T06:19:35.369Z,1002.43
2022-11-09T06:20:35.304Z,1002.43
2022-11-09T06:21:35.296Z,1002.45
2022-11-09T06:22:35.301Z,1002.45
2022-11-09T06:23:35.274Z,1002.57
2022-11-09T06:24:35.257Z,1002.48
2022-11-09T06:25:35.243Z,1002.48
2022-11-09T06:26:35.238Z,1002.50
2022-11-09T06:27:35.250Z,1002.48
2022-11-09T06:28:35.222Z,1002.54
2022-11-09T06:29:35.199Z,1002.52
2022-11-09T06:30:35.195Z,1002.52
2022-11-09T06:31:35.186Z,1002.46
2022-11-09T06:32:35.188Z,1002.53
2022-11-09T06:33:35.163Z,1002.59
2022-11-09T06:34:35.140Z,1002.57
2022-11-09T06:35:35.157Z,1002.58
2022-11-09T06:36:35.121Z,1002.57
2022-11-09T06:37:35.123Z,1002.62
2022-11-09T06:38:35.097Z,1002.62
2022-11-09T06:39:35.096Z,1002.65
2022-11-09T06:40:35.070Z,1002.62
2022-11-09T06:41:35.072Z,1002.67
2022-11-09T06:42:35.189Z,1002.68
2022-11-09T06:43:35.044Z,1002.68
2022-11-09T06:44:35.044Z,1002.70
2022-11-09T06:45:35.021Z,1002.73
2022-11-09T06:46:35.007Z,1002.75
2022-11-09T06:47:35.022Z,1002.77
2022-11-09T06:48:34.993Z,1002.86
2022-11-09T06:49:34.975Z,1002.81
2022-11-09T06:50:34.964Z,1002.85
2022-11-09T06:51:34.970Z,1002.86
2022-11-09T06:52:34.966Z,1002.88
2022-11-09T06:53:34.951Z,1002.91
2022-11-09T06:54:34.922Z,1002.92
2022-11-09T06:55:34.909Z,1002.91
2022-11-09T06:56:34.898Z,1002.93
2022-11-09T06:57:34.950Z,1002.94
2022-11-09T06:58:34.879Z,1002.97
2022-11-09T06:59:34.861Z,1003.00
2022-11-09T07:00:34.850Z,1003.00
2022-11-09T07:01:34.887Z,1003.00
2022-11-09T07:02:34.840Z,1003.00
2022-11-09T07:03:34.849Z,1003.05
2022-11-09T07:04:34.807Z,1003.03
2022-11-09T07:05:34.800Z,1003.05
2022-11-09T07:06:34.875Z,1003.02
2022-11-09T07:07:34.821Z,1003.02
2022-11-09T07:08:34.768Z,1003.06
2022-11-09T07:09:34.764Z,1003.03
2022-11-09T07:10:34.735Z,1003.02
2022-11-09T07:11:34.728Z,1003.05
2022-11-09T07:12:34.731Z,1003.07
2022-11-09T07:13:34.711Z,1003.06
2022-11-09T07:14:34.704Z,1003.09
2022-11-09T07:15:34.684Z,1003.13
2022-11-09T07:16:34.670Z,1003.14
2022-11-09T07:17:34.677Z,1003.17
2022-11-09T07:18:34.646Z,1003.17
2022-11-09T07:19:34.636Z,1003.20
2022-11-09T07:20:34.628Z,1003.19
2022-11-09T07:21:34.625Z,1003.19
2022-11-09T07:22:34.607Z,1003.20
2022-11-09T07:23:34.635Z,1003.17
2022-11-09T07:24:34.584Z,1003.16
2022-11-09T07:25:34.576Z,1003.19
2022-11-09T07:26:34.584Z,1003.17
2022-11-09T07:27:34.561Z,1003.21
2022-11-09T07:28:34.536Z,1003.19
2022-11-09T07:29:34.540Z,1003.18
2022-11-09T07:30:34.518Z,1003.19
2022-11-09T07:31:34.500Z,1003.21
2022-11-09T07:33:06.925Z,1003.25
2022-11-09T07:33:35.491Z,1003.26
2022-11-09T07:34:34.475Z,1003.32
2022-11-09T07:35:34.467Z,1003.28
2022-11-09T07:36:34.442Z,1003.33
2022-11-09T07:37:34.436Z,1003.34
2022-11-09T07:38:34.441Z,1003.31
2022-11-09T07:39:34.480Z,1003.32
2022-11-09T07:40:34.404Z,1003.34
2022-11-09T07:41:34.981Z,1003.29
2022-11-09T07:42:34.387Z,1003.26
2022-11-09T07:43:34.372Z,1003.27
2022-11-09T07:44:34.353Z,1003.31
2022-11-09T07:45:34.376Z,1003.30
2022-11-09T07:46:34.329Z,1003.31
2022-11-09T07:47:34.353Z,1003.28
2022-11-09T07:48:34.321Z,1003.30
2022-11-09T07:49:34.296Z,1003.30
2022-11-09T07:50:34.285Z,1003.36
2022-11-09T07:51:34.278Z,1003.34
2022-11-09T07:52:34.291Z,1003.31
2022-11-09T07:53:34.258Z,1003.34
2022-11-09T07:54:34.304Z,1003.33
2022-11-09T07:55:34.274Z,1003.40
2022-11-09T07:56:34.223Z,1003.40
2022-11-09T07:57:34.220Z,1003.39
2022-11-09T07:58:34.206Z,1003.42
2022-11-09T07:59:34.190Z,1003.45
2022-11-09T08:00:34.177Z,1003.43
2022-11-09T08:01:34.336Z,1003.47
2022-11-09T08:02:34.238Z,1003.49
2022-11-09T08:03:34.148Z,1003.47
2022-11-09T08:04:34.136Z,1003.49
2022-11-09T08:05:34.124Z,1003.52
2022-11-09T08:06:34.169Z,1003.51
2022-11-09T08:07:34.110Z,1003.51
2022-11-09T08:08:34.100Z,1003.50
2022-11-09T08:09:34.078Z,1003.48
2022-11-09T08:10:34.060Z,1003.51
2022-11-09T08:11:34.077Z,1003.55
2022-11-09T08:12:37.057Z,1003.56
2022-11-09T08:13:34.044Z,1003.56
2022-11-09T08:14:34.021Z,1003.53
2022-11-09T08:15:34.006Z,1003.56
2022-11-09T08:16:37.756Z,1003.55
2022-11-09T08:17:34.000Z,1003.52
2022-11-09T08:18:33.980Z,1003.57
2022-11-09T08:19:33.983Z,1003.58
2022-11-09T08:20:33.960Z,1003.52
2022-11-09T08:21:33.932Z,1003.58
2022-11-09T08:22:33.969Z,1003.56
2022-11-09T08:23:33.925Z,1003.57
2022-11-09T08:24:33.898Z,1003.57
2022-11-09T08:25:33.886Z,1003.60
2022-11-09T08:26:33.877Z,1003.60
2022-11-09T08:27:33.893Z,1003.63
2022-11-09T08:28:33.867Z,1003.60
2022-11-09T08:29:33.842Z,1003.65
2022-11-09T08:30:33.865Z,1003.64
2022-11-09T08:31:33.847Z,1003.66
2022-11-09T08:32:33.859Z,1003.67
2022-11-09T08:33:33.797Z,1003.63
2022-11-09T08:34:33.790Z,1003.64
2022-11-09T08:35:33.775Z,1003.63
2022-11-09T08:36:33.774Z,1003.64
2022-11-09T08:37:33.777Z,1003.66
2022-11-09T08:38:33.755Z,1003.67
2022-11-09T08:39:33.737Z,1003.68
2022-11-09T08:40:33.727Z,1003.69
2022-11-09T08:41:33.709Z,1003.66
2022-11-09T08:42:33.716Z,1003.65
2022-11-09T08:43:33.715Z,1003.69
2022-11-09T08:44:33.681Z,1003.69
2022-11-09T08:45:33.663Z,1003.69
2022-11-09T08:46:37.086Z,1003.71
2022-11-09T08:47:34.673Z,1003.73
2022-11-09T08:48:33.638Z,1003.73
2022-11-09T08:49:33.626Z,1003.76
2022-11-09T08:50:33.603Z,1003.72
2022-11-09T08:51:33.595Z,1003.75
2022-11-09T08:52:33.609Z,1003.76
2022-11-09T08:53:33.572Z,1003.80
2022-11-09T08:54:33.569Z,1003.78
2022-11-09T08:55:33.556Z,1003.82
2022-11-09T08:56:33.546Z,1003.80
2022-11-09T08:57:33.553Z,1003.80
2022-11-09T08:58:33.516Z,1003.78
2022-11-09T08:59:33.539Z,1003.78
2022-11-09T09:00:33.527Z,1003.77
2022-11-09T09:01:33.520Z,1003.81
2022-11-09T09:02:33.492Z,1003.81
2022-11-09T09:03:33.469Z,1003.84
2022-11-09T09:04:33.455Z,1003.84
2022-11-09T09:05:33.469Z,1003.88
2022-11-09T09:06:33.478Z,1003.86
2022-11-09T09:07:33.456Z,1003.86
2022-11-09T09:08:33.410Z,1003.86
2022-11-09T09:09:33.395Z,1003.89
2022-11-09T09:10:33.381Z,1003.89
2022-11-09T09:11:33.378Z,1003.85
2022-11-09T09:12:33.373Z,1003.86
2022-11-09T09:13:33.345Z,1003.91
2022-11-09T09:14:33.340Z,1003.88
2022-11-09T09:15:33.351Z,1003.90
2022-11-09T09:16:33.311Z,1003.93
2022-11-09T09:17:33.342Z,1003.94
2022-11-09T09:18:33.289Z,1003.93
2022-11-09T09:19:33.286Z,1004.00
2022-11-09T09:20:33.271Z,1003.97
2022-11-09T09:21:33.290Z,1004.02
2022-11-09T09:22:33.274Z,1003.95
2022-11-09T09:23:33.231Z,1004.01
2022-11-09T09:24:33.268Z,1004.03
2022-11-09T09:25:33.207Z,1004.03
2022-11-09T09:26:33.199Z,1004.04
2022-11-09T09:27:33.219Z,1004.05
2022-11-09T09:28:33.176Z,1004.04
2022-11-09T09:29:33.169Z,1004.08
2022-11-09T09:30:33.165Z,1004.07
2022-11-09T09:31:33.168Z,1004.08
2022-11-09T09:32:33.161Z,1004.06
2022-11-09T09:33:33.125Z,1004.05
2022-11-09T09:34:33.119Z,1004.01
2022-11-09T09:35:33.109Z,1004.11
2022-11-09T09:36:33.091Z,1004.13
2022-11-09T09:37:33.096Z,1004.03
2022-11-09T09:38:33.064Z,1004.16
2022-11-09T09:39:33.053Z,1004.18
2022-11-09T09:40:33.044Z,1004.16
2022-11-09T09:41:33.151Z,1004.06
2022-11-09T09:42:33.038Z,1004.23
2022-11-09T09:43:33.930Z,1004.20
2022-11-09T09:44:33.004Z,1004.22
2022-11-09T09:45:32.986Z,1004.15
2022-11-09T09:46:32.977Z,1004.19
2022-11-09T09:47:33.019Z,1004.24
2022-11-09T09:48:32.955Z,1004.22
2022-11-09T09:49:32.942Z,1004.20
2022-11-09T09:50:32.983Z,1004.16
2022-11-09T09:51:32.934Z,1004.22
2022-11-09T09:52:32.934Z,1004.25
2022-11-09T09:53:32.907Z,1004.20
2022-11-09T09:54:32.895Z,1004.23
2022-11-09T09:55:32.880Z,1004.32
2022-11-09T09:56:32.873Z,1004.32
2022-11-09T09:57:35.454Z,1004.33
2022-11-09T09:58:33.851Z,1004.44
2022-11-09T09:59:32.840Z,1004.32
2022-11-09T10:00:32.833Z,1004.40
2022-11-09T10:01:32.821Z,1004.47
2022-11-09T10:02:32.815Z,1004.44
2022-11-09T10:03:32.811Z,1004.42
2022-11-09T10:04:32.893Z,1004.43
2022-11-09T10:05:32.770Z,1004.43
2022-11-09T10:06:32.805Z,1004.51
2022-11-09T10:07:32.775Z,1004.47
2022-11-09T10:08:32.743Z,1004.48
2022-11-09T10:09:32.720Z,1004.44
2022-11-09T10:10:32.717Z,1004.48
2022-11-09T10:11:32.699Z,1004.53
2022-11-09T10:12:32.705Z,1004.52
2022-11-09T10:13:32.692Z,1004.49
2022-11-09T10:14:32.673Z,1004.48
2022-11-09T10:15:33.576Z,1004.39
2022-11-09T10:16:32.647Z,1004.48
2022-11-09T10:17:32.652Z,1004.47
2022-11-09T10:18:32.626Z,1004.50
2022-11-09T10:19:32.634Z,1004.47
2022-11-09T10:20:32.605Z,1004.47
2022-11-09T10:21:32.585Z,1004.47
2022-11-09T10:22:32.589Z,1004.47
2022-11-09T10:23:32.569Z,1004.47
2022-11-09T10:24:32.561Z,1004.49
2022-11-09T10:25:57.827Z,1004.53
2022-11-09T10:26:33.530Z,1004.62
2022-11-09T10:27:32.541Z,1004.50
2022-11-09T10:28:47.937Z,1004.61
2022-11-09T10:29:33.492Z,1004.52
2022-11-09T10:30:32.497Z,1004.49
2022-11-09T10:31:32.475Z,1004.56
2022-11-09T10:32:32.471Z,1004.57
2022-11-09T10:33:32.453Z,1004.43
2022-11-09T10:34:32.443Z,1004.54
2022-11-09T10:35:32.486Z,1004.52
2022-11-09T10:36:32.414Z,1004.46
2022-11-09T10:37:32.422Z,1004.53
2022-11-09T10:38:32.401Z,1004.59
2022-11-09T10:39:32.385Z,1004.57
2022-11-09T10:40:32.370Z,1004.61
2022-11-09T10:41:32.357Z,1004.61
2022-11-09T10:42:32.361Z,1004.52
2022-11-09T10:43:32.336Z,1004.53
2022-11-09T10:44:32.329Z,1004.53
2022-11-09T10:45:32.335Z,1004.56
2022-11-09T10:46:32.307Z,1004.61
2022-11-09T10:47:32.302Z,1004.54
2022-11-09T10:48:32.284Z,1004.52
2022-11-09T10:49:32.267Z,1004.67
2022-11-09T10:50:32.254Z,1004.72
2022-11-09T10:51:32.270Z,1004.59
2022-11-09T10:52:32.257Z,1004.60
2022-11-09T10:53:32.225Z,1004.56
2022-11-09T10:54:32.230Z,1004.60
2022-11-09T10:55:32.201Z,1004.63
2022-11-09T10:56:37.250Z,1004.64
2022-11-09T10:57:33.191Z,1004.67
2022-11-09T10:58:32.190Z,1004.64
2022-11-09T10:59:32.156Z,1004.66
2022-11-09T11:00:32.152Z,1004.68
2022-11-09T11:01:32.172Z,1004.63
2022-11-09T11:02:32.133Z,1004.70
2022-11-09T11:03:32.118Z,1004.73
2022-11-09T11:04:32.102Z,1004.75
2022-11-09T11:05:32.107Z,1004.70
2022-11-09T11:06:32.100Z,1004.80
2022-11-09T11:07:32.140Z,1004.77
2022-11-09T11:08:32.066Z,1004.80
2022-11-09T11:09:32.049Z,1004.78
2022-11-09T11:10:32.030Z,1004.82
2022-11-09T11:11:34.356Z,1004.78
2022-11-09T11:12:32.034Z,1004.82
2022-11-09T11:13:32.017Z,1004.77
2022-11-09T11:14:31.991Z,1004.78
2022-11-09T11:15:31.985Z,1004.76
2022-11-09T11:16:31.972Z,1004.77
2022-11-09T11:17:31.973Z,1004.75
2022-11-09T11:18:31.949Z,1004.74
2022-11-09T11:19:31.935Z,1004.71
2022-11-09T11:20:31.933Z,1004.66
2022-11-09T11:21:31.913Z,1004.75
2022-11-09T11:22:31.915Z,1004.75
2022-11-09T11:23:31.907Z,1004.70
2022-11-09T11:24:31.882Z,1004.69
2022-11-09T11:25:31.868Z,1004.70
2022-11-09T11:26:31.864Z,1004.69
2022-11-09T11:27:31.865Z,1004.66
2022-11-09T11:28:31.831Z,1004.71
2022-11-09T11:29:31.826Z,1004.73
2022-11-09T11:30:31.811Z,1004.63
2022-11-09T11:31:31.807Z,1004.65
2022-11-09T11:32:31.814Z,1004.68
2022-11-09T11:33:31.790Z,1004.67
2022-11-09T11:34:57.993Z,1004.70
2022-11-09T11:35:32.759Z,1004.67
2022-11-09T11:36:31.764Z,1004.65
2022-11-09T11:37:31.758Z,1004.79
2022-11-09T11:38:31.722Z,1004.71
2022-11-09T11:39:31.840Z,1004.78
2022-11-09T11:40:31.721Z,1004.73
2022-11-09T11:41:31.700Z,1004.81
2022-11-09T11:42:31.704Z,1004.75
2022-11-09T11:43:31.673Z,1004.71
2022-11-09T11:44:31.661Z,1004.75
2022-11-09T11:45:40.612Z,1004.72
2022-11-09T11:46:32.640Z,1004.69
2022-11-09T11:47:31.672Z,1004.79
2022-11-09T11:48:31.611Z,1004.73
2022-11-09T11:49:31.610Z,1004.75
2022-11-09T11:50:31.589Z,1004.71
2022-11-09T11:51:31.578Z,1004.77
2022-11-09T11:52:31.583Z,1004.77
2022-11-09T11:53:31.552Z,1004.73
2022-11-09T11:54:31.541Z,1004.78
2022-11-09T11:55:31.565Z,1004.76
2022-11-09T11:56:31.518Z,1004.76
2022-11-09T11:57:31.531Z,1004.84
2022-11-09T11:58:31.507Z,1004.85
2022-11-09T11:59:31.486Z,1004.78
2022-11-09T12:00:31.482Z,1004.87
2022-11-09T12:01:31.463Z,1004.84
2022-11-09T12:02:31.529Z,1004.78
2022-11-09T12:03:31.463Z,1004.81
2022-11-09T12:04:32.418Z,1004.83
2022-11-09T12:05:31.417Z,1004.81